^^
Saratoga-Weather Station Historical Data
Daily Summary for January 7, 2021 Units:  Both    English   Metric
Daily Weekly Monthly Yearly Custom
  High: Low: Average:
Temperature: 34.9 °F /  1.6 °C 32.2 °F /  0.1 °C 33.6 °F /  0.9 °C
Dew Point: 32.2 °F /  0.1 °C 30.4 °F /  -0.9 °C 31.3 °F /  -0.4 °C
Humidity: 95% 88% 91%
Wind Speed: 4mph /  6.4km/h - 1.2mph /  2km/h
Wind Gust: 8mph /  12.9km/h - -
Wind- - West
Pressure: 30 in /  1014.9 hPa 30 in /  1014.2 hPa -
Precipitation: 0 in /  0.0 mm    
Historical Graphs
 
 
Tabular Data for January 7, 2021
Time Temperature Dew Point Pressure Wind Wind Speed Wind Gust Humidity Rainfall Rate (Hourly) solar
00:04 34.9 °F /  1.6 °C 32 °F /  0 °C 30in /  1014.6hPa WSW 0.9mph /  1.4km/h 3mph /  4.8km/h 89% 0in /  0.0mm 0 W/m2
00:09 34.9 °F /  1.6 °C 32 °F /  0 °C 30in /  1014.6hPa WSW 2.9mph /  4.7km/h 3mph /  4.8km/h 89% 0in /  0.0mm 0 W/m2
00:14 34.7 °F /  1.5 °C 31.8 °F /  -0.1 °C 30in /  1014.6hPa WSW 0.9mph /  1.4km/h 2mph /  3.2km/h 89% 0in /  0.0mm 0 W/m2
00:19 34.5 °F /  1.4 °C 31.6 °F /  -0.2 °C 30in /  1014.6hPa WSW 0.9mph /  1.4km/h 1mph /  1.6km/h 89% 0in /  0.0mm 0 W/m2
00:24 34.5 °F /  1.4 °C 31.8 °F /  -0.1 °C 30in /  1014.6hPa Calm   2mph /  3.2km/h 90% 0in /  0.0mm 0 W/m2
00:29 34.3 °F /  1.3 °C 31.6 °F /  -0.2 °C 30in /  1014.6hPa Calm   2mph /  3.2km/h 90% 0in /  0.0mm 0 W/m2
00:34 34.2 °F /  1.2 °C 31.5 °F /  -0.3 °C 30in /  1014.6hPa WSW 0.9mph /  1.4km/h 2mph /  3.2km/h 90% 0in /  0.0mm 0 W/m2
00:39 34.2 °F /  1.2 °C 31.5 °F /  -0.3 °C 30in /  1014.6hPa SW 0.9mph /  1.4km/h 2mph /  3.2km/h 90% 0in /  0.0mm 0 W/m2
00:44 34.2 °F /  1.2 °C 31.5 °F /  -0.3 °C 30in /  1014.6hPa SW 2mph /  3.2km/h 2mph /  3.2km/h 90% 0in /  0.0mm 0 W/m2
00:49 34.2 °F /  1.2 °C 31.5 °F /  -0.3 °C 30in /  1014.6hPa Calm     90% 0in /  0.0mm 0 W/m2
00:54 34.2 °F /  1.2 °C 31.8 °F /  -0.1 °C 30in /  1014.6hPa Calm     91% 0in /  0.0mm 0 W/m2
00:59 34.2 °F /  1.2 °C 31.8 °F /  -0.1 °C 30in /  1014.6hPa Calm     91% 0in /  0.0mm 0 W/m2
01:04 34.2 °F /  1.2 °C 31.8 °F /  -0.1 °C 30in /  1014.6hPa Calm     91% 0in /  0.0mm 0 W/m2
01:09 34.2 °F /  1.2 °C 32 °F /  0 °C 30in /  1014.6hPa Calm     92% 0in /  0.0mm 0 W/m2
01:14 34 °F /  1.1 °C 31.8 °F /  -0.1 °C 30in /  1014.6hPa Calm     92% 0in /  0.0mm 0 W/m2
01:20 34 °F /  1.1 °C 31.8 °F /  -0.1 °C 30in /  1014.6hPa Calm     92% 0in /  0.0mm 0 W/m2
01:25 34 °F /  1.1 °C 32.2 °F /  0.1 °C 30in /  1014.6hPa WSW 2mph /  3.2km/h 2mph /  3.2km/h 93% 0in /  0.0mm 0 W/m2
01:30 34 °F /  1.1 °C 32.2 °F /  0.1 °C 30in /  1014.6hPa WNW 2.9mph /  4.7km/h 3mph /  4.8km/h 93% 0in /  0.0mm 0 W/m2
01:35 34 °F /  1.1 °C 32.2 °F /  0.1 °C 30in /  1014.6hPa WNW 0.9mph /  1.4km/h 1mph /  1.6km/h 93% 0in /  0.0mm 0 W/m2
01:40 34 °F /  1.1 °C 32.2 °F /  0.1 °C 30in /  1014.6hPa WNW 0.9mph /  1.4km/h 2mph /  3.2km/h 93% 0in /  0.0mm 0 W/m2
01:45 34 °F /  1.1 °C 32.2 °F /  0.1 °C 30in /  1014.6hPa WNW 0.9mph /  1.4km/h 1mph /  1.6km/h 93% 0in /  0.0mm 0 W/m2
01:50 34 °F /  1.1 °C 32.2 °F /  0.1 °C 30in /  1014.6hPa WNW 2mph /  3.2km/h 4mph /  6.4km/h 93% 0in /  0.0mm 0 W/m2
01:55 34.2 °F /  1.2 °C 31.8 °F /  -0.1 °C 30in /  1014.6hPa West 2.9mph /  4.7km/h 6mph /  9.7km/h 91% 0in /  0.0mm 0 W/m2
02:00 34.3 °F /  1.3 °C 31.5 °F /  -0.3 °C 30in /  1014.6hPa West 2mph /  3.2km/h 6mph /  9.7km/h 89% 0in /  0.0mm 0 W/m2
02:05 34.5 °F /  1.4 °C 31.3 °F /  -0.4 °C 30in /  1014.6hPa West 2mph /  3.2km/h 4mph /  6.4km/h 88% 0in /  0.0mm 0 W/m2
02:10 34.5 °F /  1.4 °C 31.3 °F /  -0.4 °C 30in /  1014.6hPa West 2mph /  3.2km/h 4mph /  6.4km/h 88% 0in /  0.0mm 0 W/m2
02:15 34.5 °F /  1.4 °C 31.3 °F /  -0.4 °C 30in /  1014.6hPa WSW 0.9mph /  1.4km/h 3mph /  4.8km/h 88% 0in /  0.0mm 0 W/m2
02:20 34.5 °F /  1.4 °C 31.3 °F /  -0.4 °C 30in /  1014.6hPa WSW 2mph /  3.2km/h 4mph /  6.4km/h 88% 0in /  0.0mm 0 W/m2
02:25 34.3 °F /  1.3 °C 31.1 °F /  -0.5 °C 30in /  1014.6hPa WNW 2.9mph /  4.7km/h 3mph /  4.8km/h 88% 0in /  0.0mm 0 W/m2
02:30 34.3 °F /  1.3 °C 31.1 °F /  -0.5 °C 30in /  1014.6hPa WNW 0.9mph /  1.4km/h 4mph /  6.4km/h 88% 0in /  0.0mm 0 W/m2
02:35 34.3 °F /  1.3 °C 31.1 °F /  -0.5 °C 30in /  1014.6hPa WNW 0.9mph /  1.4km/h 2mph /  3.2km/h 88% 0in /  0.0mm 0 W/m2
02:40 34.2 °F /  1.2 °C 30.9 °F /  -0.6 °C 30in /  1014.6hPa Calm   1mph /  1.6km/h 88% 0in /  0.0mm 0 W/m2
02:45 34 °F /  1.1 °C 31.1 °F /  -0.5 °C 30in /  1014.6hPa Calm   2mph /  3.2km/h 89% 0in /  0.0mm 0 W/m2
02:50 34 °F /  1.1 °C 31.1 °F /  -0.5 °C 30in /  1014.6hPa Calm     89% 0in /  0.0mm 0 W/m2
02:55 33.6 °F /  0.9 °C 30.7 °F /  -0.7 °C 30in /  1014.6hPa Calm   1mph /  1.6km/h 89% 0in /  0.0mm 0 W/m2
03:00 33.4 °F /  0.8 °C 30.6 °F /  -0.8 °C 30in /  1014.6hPa Calm   1mph /  1.6km/h 89% 0in /  0.0mm 0 W/m2
03:05 33.1 °F /  0.6 °C 30.4 °F /  -0.9 °C 30in /  1014.9hPa West 0.9mph /  1.4km/h 3mph /  4.8km/h 90% 0in /  0.0mm 0 W/m2
03:10 33.1 °F /  0.6 °C 30.4 °F /  -0.9 °C 30in /  1014.6hPa West 2mph /  3.2km/h 3mph /  4.8km/h 90% 0in /  0.0mm 0 W/m2
03:15 33.1 °F /  0.6 °C 30.7 °F /  -0.7 °C 30in /  1014.6hPa WSW 2.9mph /  4.7km/h 4mph /  6.4km/h 91% 0in /  0.0mm 0 W/m2
03:20 33.4 °F /  0.8 °C 31.1 °F /  -0.5 °C 30in /  1014.9hPa WSW 2.9mph /  4.7km/h 3mph /  4.8km/h 91% 0in /  0.0mm 0 W/m2
03:25 34 °F /  1.1 °C 31.6 °F /  -0.2 °C 30in /  1014.6hPa WSW 2mph /  3.2km/h 6mph /  9.7km/h 91% 0in /  0.0mm 0 W/m2
03:30 34.2 °F /  1.2 °C 31.5 °F /  -0.3 °C 30in /  1014.9hPa WSW 0.9mph /  1.4km/h 3mph /  4.8km/h 90% 0in /  0.0mm 0 W/m2
03:35 34.2 °F /  1.2 °C 31.5 °F /  -0.3 °C 30in /  1014.6hPa WNW 2mph /  3.2km/h 3mph /  4.8km/h 90% 0in /  0.0mm 0 W/m2
03:40 34.3 °F /  1.3 °C 31.6 °F /  -0.2 °C 30in /  1014.6hPa WNW 0.9mph /  1.4km/h 4mph /  6.4km/h 90% 0in /  0.0mm 0 W/m2
03:45 34.3 °F /  1.3 °C 32 °F /  0 °C 30in /  1014.6hPa West 2mph /  3.2km/h 4mph /  6.4km/h 91% 0in /  0.0mm 0 W/m2
03:50 34.3 °F /  1.3 °C 32 °F /  0 °C 30in /  1014.6hPa WNW 2mph /  3.2km/h 3mph /  4.8km/h 91% 0in /  0.0mm 0 W/m2
03:55 34.3 °F /  1.3 °C 32 °F /  0 °C 30in /  1014.6hPa WNW 0.9mph /  1.4km/h 3mph /  4.8km/h 91% 0in /  0.0mm 0 W/m2
04:01 34.2 °F /  1.2 °C 31.8 °F /  -0.1 °C 30in /  1014.6hPa WNW 0.9mph /  1.4km/h 2mph /  3.2km/h 91% 0in /  0.0mm 0 W/m2
04:06 34 °F /  1.1 °C 31.6 °F /  -0.2 °C 30in /  1014.6hPa West 2mph /  3.2km/h 4mph /  6.4km/h 91% 0in /  0.0mm 0 W/m2
04:11 34.2 °F /  1.2 °C 31.8 °F /  -0.1 °C 30in /  1014.6hPa WNW 4mph /  6.4km/h 6mph /  9.7km/h 91% 0in /  0.0mm 0 W/m2
04:16 34.2 °F /  1.2 °C 32 °F /  0 °C 30in /  1014.6hPa WNW 0.9mph /  1.4km/h 4mph /  6.4km/h 92% 0in /  0.0mm 0 W/m2
04:21 34.2 °F /  1.2 °C 32 °F /  0 °C 30in /  1014.6hPa WSW 2mph /  3.2km/h 5mph /  8km/h 92% 0in /  0.0mm 0 W/m2
04:26 34.2 °F /  1.2 °C 32 °F /  0 °C 30in /  1014.6hPa West 2.9mph /  4.7km/h 3mph /  4.8km/h 92% 0in /  0.0mm 0 W/m2
04:31 34.2 °F /  1.2 °C 32 °F /  0 °C 30in /  1014.6hPa WNW 0.9mph /  1.4km/h 5mph /  8km/h 92% 0in /  0.0mm 0 W/m2
04:36 34 °F /  1.1 °C 31.8 °F /  -0.1 °C 30in /  1014.6hPa West 0.9mph /  1.4km/h 6mph /  9.7km/h 92% 0in /  0.0mm 0 W/m2
04:41 34 °F /  1.1 °C 31.8 °F /  -0.1 °C 30in /  1014.6hPa WNW 2mph /  3.2km/h 4mph /  6.4km/h 92% 0in /  0.0mm 0 W/m2
04:46 33.8 °F /  1 °C 31.6 °F /  -0.2 °C 30in /  1014.6hPa WSW 2mph /  3.2km/h 4mph /  6.4km/h 92% 0in /  0.0mm 0 W/m2
04:51 33.6 °F /  0.9 °C 31.5 °F /  -0.3 °C 30in /  1014.6hPa West 2mph /  3.2km/h 3mph /  4.8km/h 92% 0in /  0.0mm 0 W/m2
04:56 33.6 °F /  0.9 °C 31.5 °F /  -0.3 °C 30in /  1014.6hPa West 0.9mph /  1.4km/h 4mph /  6.4km/h 92% 0in /  0.0mm 0 W/m2
05:01 33.4 °F /  0.8 °C 31.3 °F /  -0.4 °C 30in /  1014.6hPa NW 2mph /  3.2km/h 2mph /  3.2km/h 92% 0in /  0.0mm 0 W/m2
05:06 33.4 °F /  0.8 °C 31.3 °F /  -0.4 °C 30in /  1014.6hPa West 2mph /  3.2km/h 4mph /  6.4km/h 92% 0in /  0.0mm 0 W/m2
05:11 33.4 °F /  0.8 °C 31.3 °F /  -0.4 °C 30in /  1014.6hPa WSW 4mph /  6.4km/h 8mph /  12.9km/h 92% 0in /  0.0mm 0 W/m2
05:16 33.4 °F /  0.8 °C 31.3 °F /  -0.4 °C 30in /  1014.6hPa West 2.9mph /  4.7km/h 4mph /  6.4km/h 92% 0in /  0.0mm 0 W/m2
05:21 33.4 °F /  0.8 °C 31.3 °F /  -0.4 °C 30in /  1014.6hPa West 2.9mph /  4.7km/h 4mph /  6.4km/h 92% 0in /  0.0mm 0 W/m2
05:26 33.4 °F /  0.8 °C 31.3 °F /  -0.4 °C 30in /  1014.6hPa West 2.9mph /  4.7km/h 4mph /  6.4km/h 92% 0in /  0.0mm 0 W/m2
05:31 33.3 °F /  0.7 °C 31.1 °F /  -0.5 °C 30in /  1014.6hPa West 2mph /  3.2km/h 4mph /  6.4km/h 92% 0in /  0.0mm 0 W/m2
05:36 33.3 °F /  0.7 °C 31.1 °F /  -0.5 °C 30in /  1014.6hPa WNW 2mph /  3.2km/h 4mph /  6.4km/h 92% 0in /  0.0mm 0 W/m2
05:41 33.3 °F /  0.7 °C 31.1 °F /  -0.5 °C 30in /  1014.2hPa WNW 2.9mph /  4.7km/h 4mph /  6.4km/h 92% 0in /  0.0mm 0 W/m2
05:46 33.3 °F /  0.7 °C 30.9 °F /  -0.6 °C 30in /  1014.2hPa WNW 0.9mph /  1.4km/h 4mph /  6.4km/h 91% 0in /  0.0mm 0 W/m2
05:51 33.3 °F /  0.7 °C 30.9 °F /  -0.6 °C 30in /  1014.2hPa West 2mph /  3.2km/h 3mph /  4.8km/h 91% 0in /  0.0mm 0 W/m2
05:56 33.3 °F /  0.7 °C 30.9 °F /  -0.6 °C 30in /  1014.2hPa West 2mph /  3.2km/h 4mph /  6.4km/h 91% 0in /  0.0mm 0 W/m2
06:01 33.3 °F /  0.7 °C 30.9 °F /  -0.6 °C 30in /  1014.2hPa West 2mph /  3.2km/h 7mph /  11.3km/h 91% 0in /  0.0mm 0 W/m2
06:06 33.3 °F /  0.7 °C 30.9 °F /  -0.6 °C 30in /  1014.2hPa West 2mph /  3.2km/h 3mph /  4.8km/h 91% 0in /  0.0mm 0 W/m2
06:11 33.3 °F /  0.7 °C 30.9 °F /  -0.6 °C 30in /  1014.2hPa WSW 2mph /  3.2km/h 4mph /  6.4km/h 91% 0in /  0.0mm 0 W/m2
06:16 33.3 °F /  0.7 °C 30.9 °F /  -0.6 °C 30in /  1014.2hPa WSW 0.9mph /  1.4km/h 3mph /  4.8km/h 91% 0in /  0.0mm 0 W/m2
06:21 33.3 °F /  0.7 °C 30.9 °F /  -0.6 °C 30in /  1014.2hPa West 0.9mph /  1.4km/h 3mph /  4.8km/h 91% 0in /  0.0mm 0 W/m2
06:26 33.1 °F /  0.6 °C 30.7 °F /  -0.7 °C 30in /  1014.2hPa Calm   1mph /  1.6km/h 91% 0in /  0.0mm 0 W/m2
06:31 32.9 °F /  0.5 °C 30.6 °F /  -0.8 °C 30in /  1014.2hPa Calm     91% 0in /  0.0mm 0 W/m2
06:36 32.7 °F /  0.4 °C 30.4 °F /  -0.9 °C 30in /  1014.2hPa Calm   1mph /  1.6km/h 91% 0in /  0.0mm 0 W/m2
06:41 32.7 °F /  0.4 °C 30.4 °F /  -0.9 °C 30in /  1014.2hPa Calm     91% 0in /  0.0mm 0 W/m2
06:46 32.5 °F /  0.3 °C 30.6 °F /  -0.8 °C 30in /  1014.2hPa Calm   1mph /  1.6km/h 92% 0in /  0.0mm 0 W/m2
06:51 32.5 °F /  0.3 °C 30.6 °F /  -0.8 °C 30in /  1014.2hPa Calm     92% 0in /  0.0mm 0 W/m2
06:56 32.5 °F /  0.3 °C 30.6 °F /  -0.8 °C 30in /  1014.2hPa Calm   1mph /  1.6km/h 92% 0in /  0.0mm 0 W/m2
07:01 32.4 °F /  0.2 °C 30.6 °F /  -0.8 °C 30in /  1014.2hPa Calm     93% 0in /  0.0mm 0 W/m2
07:06 32.4 °F /  0.2 °C 30.6 °F /  -0.8 °C 30in /  1014.2hPa Calm     93% 0in /  0.0mm 0 W/m2
07:11 32.2 °F /  0.1 °C 30.4 °F /  -0.9 °C 30in /  1014.2hPa Calm     93% 0in /  0.0mm 0 W/m2
07:16 32.2 °F /  0.1 °C 30.4 °F /  -0.9 °C 30in /  1014.2hPa Calm     93% 0in /  0.0mm 0 W/m2
07:21 32.2 °F /  0.1 °C 30.4 °F /  -0.9 °C 30in /  1014.2hPa Calm   1mph /  1.6km/h 93% 0in /  0.0mm 0 W/m2
07:26 32.2 °F /  0.1 °C 30.6 °F /  -0.8 °C 30in /  1014.2hPa West 0.9mph /  1.4km/h 1mph /  1.6km/h 94% 0in /  0.0mm 0 W/m2
07:31 32.2 °F /  0.1 °C 30.6 °F /  -0.8 °C 30in /  1014.2hPa West 0.9mph /  1.4km/h 1mph /  1.6km/h 94% 0in /  0.0mm 0 W/m2
07:36 32.2 °F /  0.1 °C 30.6 °F /  -0.8 °C 30in /  1014.2hPa Calm   1mph /  1.6km/h 94% 0in /  0.0mm 0 W/m2
07:41 32.2 °F /  0.1 °C 30.6 °F /  -0.8 °C 30in /  1014.2hPa Calm     94% 0in /  0.0mm 0 W/m2
07:46 32.4 °F /  0.2 °C 30.7 °F /  -0.7 °C 30in /  1014.2hPa SW 0.9mph /  1.4km/h 1mph /  1.6km/h 94% 0in /  0.0mm 0 W/m2
07:51 32.5 °F /  0.3 °C 30.9 °F /  -0.6 °C 30in /  1014.6hPa WSW 2mph /  3.2km/h 2mph /  3.2km/h 94% 0in /  0.0mm 0 W/m2
07:56 32.7 °F /  0.4 °C 31.5 °F /  -0.3 °C 30in /  1014.2hPa West 0.9mph /  1.4km/h 3mph /  4.8km/h 95% 0in /  0.0mm 0 W/m2
08:01 33.1 °F /  0.6 °C 31.8 °F /  -0.1 °C 30in /  1014.2hPa West 2.9mph /  4.7km/h 4mph /  6.4km/h 95% 0in /  0.0mm 0 W/m2
08:06 33.3 °F /  0.7 °C 32 °F /  0 °C 30in /  1014.2hPa West 0.9mph /  1.4km/h 2mph /  3.2km/h 95% 0in /  0.0mm 0 W/m2
08:11 33.4 °F /  0.8 °C 31.8 °F /  -0.1 °C 30in /  1014.2hPa West 0.9mph /  1.4km/h 3mph /  4.8km/h 94% 0in /  0.0mm 0 W/m2
08:16 33.6 °F /  0.9 °C 32 °F /  0 °C 30in /  1014.2hPa West 2mph /  3.2km/h 4mph /  6.4km/h 94% 0in /  0.0mm 0 W/m2
08:21 33.8 °F /  1 °C 32.2 °F /  0.1 °C 30in /  1014.2hPa West 0.9mph /  1.4km/h 2mph /  3.2km/h 94% 0in /  0.0mm 0 W/m2
08:26 33.8 °F /  1 °C 32 °F /  0 °C 30in /  1014.2hPa WSW 0.9mph /  1.4km/h 3mph /  4.8km/h 93% 0in /  0.0mm 0 W/m2
Juneau County Weather
Compliments of Weather Underground - 2 mb